sensor_id;sensor_type;location;lat;lon;timestamp;pressure;altitude;pressure_sealevel;temperature;humidity
13954;BME280;7049;49.444;8.522;2023-04-08T00:04:33;78483.53;;;-3.47;90.90
13954;BME280;7049;49.444;8.522;2023-04-08T00:09:34;78483.53;;;-3.47;91.17
13954;BME280;7049;49.444;8.522;2023-04-08T00:14:37;78483.53;;;-3.47;91.14
13954;BME280;7049;49.444;8.522;2023-04-08T00:19:40;78475.16;;;-3.47;90.84
13954;BME280;7049;49.444;8.522;2023-04-08T00:24:42;78481.44;;;-3.47;90.90
13954;BME280;7049;49.444;8.522;2023-04-08T00:29:44;78479.34;;;-3.47;91.24
13954;BME280;7049;49.444;8.522;2023-04-08T00:34:46;78483.53;;;-3.47;91.34
13954;BME280;7049;49.444;8.522;2023-04-08T00:39:47;78479.34;;;-3.47;91.68
13954;BME280;7049;49.444;8.522;2023-04-08T00:44:51;78475.16;;;-3.47;91.74
13954;BME280;7049;49.444;8.522;2023-04-08T00:49:52;78475.16;;;-3.47;91.95
13954;BME280;7049;49.444;8.522;2023-04-08T00:54:54;78475.16;;;-3.47;92.13
13954;BME280;7049;49.444;8.522;2023-04-08T00:59:57;78473.06;;;-3.47;91.92
13954;BME280;7049;49.444;8.522;2023-04-08T01:05:01;78475.16;;;-3.47;91.67
13954;BME280;7049;49.444;8.522;2023-04-08T01:15:14;78475.16;;;-3.47;91.71
13954;BME280;7049;49.444;8.522;2023-04-08T01:20:16;78466.81;;;-3.47;91.87
13954;BME280;7049;49.444;8.522;2023-04-08T01:25:21;78466.81;;;-3.47;91.60
13954;BME280;7049;49.444;8.522;2023-04-08T01:30:26;78466.81;;;-3.47;91.78
13954;BME280;7049;49.444;8.522;2023-04-08T01:35:30;78464.72;;;-3.47;91.76
13954;BME280;7049;49.444;8.522;2023-04-08T01:40:32;78473.06;;;-3.47;91.95
13954;BME280;7049;49.444;8.522;2023-04-08T01:45:36;78479.34;;;-3.47;91.97
13954;BME280;7049;49.444;8.522;2023-04-08T01:50:39;78471.00;;;-3.47;91.98
13954;BME280;7049;49.444;8.522;2023-04-08T01:55:42;78479.34;;;-3.47;92.32
13954;BME280;7049;49.444;8.522;2023-04-08T02:00:45;78483.53;;;-3.47;92.45
13954;BME280;7049;49.444;8.522;2023-04-08T02:05:47;78494.00;;;-3.47;92.28
13954;BME280;7049;49.444;8.522;2023-04-08T02:10:48;78494.00;;;-3.47;92.43
13954;BME280;7049;49.444;8.522;2023-04-08T02:15:56;78504.47;;;-3.47;92.38
13954;BME280;7049;49.444;8.522;2023-04-08T02:21:06;78504.47;;;-3.47;92.56
13954;BME280;7049;49.444;8.522;2023-04-08T02:26:12;78502.38;;;-3.47;92.91
13954;BME280;7049;49.444;8.522;2023-04-08T02:31:16;78506.56;;;-3.47;93.42
13954;BME280;7049;49.444;8.522;2023-04-08T02:36:20;78508.66;;;-3.47;92.92
13954;BME280;7049;49.444;8.522;2023-04-08T02:41:22;78510.75;;;-3.47;92.62
13954;BME280;7049;49.444;8.522;2023-04-08T02:46:25;78519.13;;;-3.47;92.46
13954;BME280;7049;49.444;8.522;2023-04-08T02:51:26;78525.41;;;-3.47;92.30
13954;BME280;7049;49.444;8.522;2023-04-08T02:56:28;78535.88;;;-3.47;92.58
13954;BME280;7049;49.444;8.522;2023-04-08T03:01:30;78544.25;;;-3.47;92.39
13954;BME280;7049;49.444;8.522;2023-04-08T03:06:32;78548.41;;;-3.47;92.36
13954;BME280;7049;49.444;8.522;2023-04-08T03:11:33;78563.06;;;-3.47;92.46
13954;BME280;7049;49.444;8.522;2023-04-08T03:16:36;78571.44;;;-3.47;92.50
13954;BME280;7049;49.444;8.522;2023-04-08T03:21:37;78575.63;;;-3.47;92.70
13954;BME280;7049;49.444;8.522;2023-04-08T03:26:39;78579.81;;;-3.47;93.00
13954;BME280;7049;49.444;8.522;2023-04-08T03:31:41;78579.81;;;-3.47;93.52
13954;BME280;7049;49.444;8.522;2023-04-08T03:36:43;78584.00;;;-3.47;93.98
13954;BME280;7049;49.444;8.522;2023-04-08T03:41:44;78579.81;;;-3.47;94.22
13954;BME280;7049;49.444;8.522;2023-04-08T03:46:47;78579.81;;;-3.47;94.68
13954;BME280;7049;49.444;8.522;2023-04-08T03:51:49;78581.91;;;-3.47;95.00
13954;BME280;7049;49.444;8.522;2023-04-08T03:56:50;78573.53;;;-3.47;95.11
13954;BME280;7049;49.444;8.522;2023-04-08T04:01:53;78575.63;;;-3.47;95.03
13954;BME280;7049;49.444;8.522;2023-04-08T04:06:55;78571.44;;;-3.47;95.15
13954;BME280;7049;49.444;8.522;2023-04-08T04:11:57;78573.53;;;-3.47;95.20
13954;BME280;7049;49.444;8.522;2023-04-08T04:16:59;78569.34;;;-3.47;95.02
13954;BME280;7049;49.444;8.522;2023-04-08T04:22:01;78571.44;;;-3.47;95.61
13954;BME280;7049;49.444;8.522;2023-04-08T04:27:02;78579.81;;;-3.47;95.96
13954;BME280;7049;49.444;8.522;2023-04-08T04:32:05;78579.81;;;-3.47;95.90
13954;BME280;7049;49.444;8.522;2023-04-08T04:37:07;78577.72;;;-3.47;95.61
13954;BME280;7049;49.444;8.522;2023-04-08T04:42:09;78571.44;;;-3.47;95.84
13954;BME280;7049;49.444;8.522;2023-04-08T04:47:12;78571.44;;;-3.47;96.04
13954;BME280;7049;49.444;8.522;2023-04-08T04:52:13;78575.63;;;-3.47;96.19
13954;BME280;7049;49.444;8.522;2023-04-08T04:57:14;78579.81;;;-3.47;96.10
13954;BME280;7049;49.444;8.522;2023-04-08T05:02:17;78577.72;;;-3.47;95.85
13954;BME280;7049;49.444;8.522;2023-04-08T05:07:19;78571.44;;;-3.47;95.79
13954;BME280;7049;49.444;8.522;2023-04-08T05:12:21;78575.63;;;-3.47;95.93
13954;BME280;7049;49.444;8.522;2023-04-08T05:17:24;78577.72;;;-3.47;95.79
13954;BME280;7049;49.444;8.522;2023-04-08T05:22:25;78588.19;;;-3.47;95.85
13954;BME280;7049;49.444;8.522;2023-04-08T05:27:27;78586.09;;;-3.47;95.78
13954;BME280;7049;49.444;8.522;2023-04-08T05:32:29;78594.47;;;-3.47;95.59
13954;BME280;7049;49.444;8.522;2023-04-08T05:37:31;78594.47;;;-3.47;95.04
13954;BME280;7049;49.444;8.522;2023-04-08T05:42:32;78592.38;;;-3.47;94.85
13954;BME280;7049;49.444;8.522;2023-04-08T05:47:35;78592.38;;;-3.47;94.28
13954;BME280;7049;49.444;8.522;2023-04-08T05:52:40;78596.56;;;-3.47;94.04
13954;BME280;7049;49.444;8.522;2023-04-08T05:57:41;78592.38;;;-3.47;93.89
13954;BME280;7049;49.444;8.522;2023-04-08T06:02:44;78596.56;;;-3.47;93.29
13954;BME280;7049;49.444;8.522;2023-04-08T06:07:46;78579.81;;;-3.47;92.87
13954;BME280;7049;49.444;8.522;2023-04-08T06:12:47;78579.81;;;-3.47;92.40
13954;BME280;7049;49.444;8.522;2023-04-08T06:17:50;78575.63;;;-3.47;92.34
13954;BME280;7049;49.444;8.522;2023-04-08T06:22:56;78571.44;;;-3.47;91.94
13954;BME280;7049;49.444;8.522;2023-04-08T06:27:57;78558.88;;;-3.47;91.57
13954;BME280;7049;49.444;8.522;2023-04-08T06:33:00;78548.41;;;-3.47;91.47
13954;BME280;7049;49.444;8.522;2023-04-08T06:38:01;78544.25;;;-3.47;90.79
13954;BME280;7049;49.444;8.522;2023-04-08T06:43:03;78521.22;;;-3.47;90.53
13954;BME280;7049;49.444;8.522;2023-04-08T06:48:07;78479.34;;;-3.47;89.93
13954;BME280;7049;49.444;8.522;2023-04-08T06:53:09;78454.25;;;-3.47;88.42
13954;BME280;7049;49.444;8.522;2023-04-08T06:58:10;78429.13;;;-3.47;86.10
13954;BME280;7049;49.444;8.522;2023-04-08T07:03:16;78416.56;;;-3.47;82.45
13954;BME280;7049;49.444;8.522;2023-04-08T07:08:17;78410.28;;;-3.47;81.55
13954;BME280;7049;49.444;8.522;2023-04-08T07:13:19;78387.28;;;-3.47;80.95
13954;BME280;7049;49.444;8.522;2023-04-08T07:18:22;78366.34;;;-3.47;80.03
13954;BME280;7049;49.444;8.522;2023-04-08T07:23:23;78353.78;;;-3.47;77.22
13954;BME280;7049;49.444;8.522;2023-04-08T07:28:25;78345.41;;;-3.47;74.34
13954;BME280;7049;49.444;8.522;2023-04-08T07:33:30;78334.94;;;-3.47;73.01
13954;BME280;7049;49.444;8.522;2023-04-08T07:38:33;78320.31;;;-3.47;70.97
13954;BME280;7049;49.444;8.522;2023-04-08T07:43:34;78320.31;;;-3.47;69.75
13954;BME280;7049;49.444;8.522;2023-04-08T07:48:37;78320.31;;;-3.47;69.12
13954;BME280;7049;49.444;8.522;2023-04-08T07:53:41;78318.22;;;-3.47;67.95
13954;BME280;7049;49.444;8.522;2023-04-08T07:58:43;78314.03;;;-3.47;67.89
13954;BME280;7049;49.444;8.522;2023-04-08T08:03:48;78320.31;;;-3.47;67.66
13954;BME280;7049;49.444;8.522;2023-04-08T08:08:50;78320.31;;;-3.47;65.25
13954;BME280;7049;49.444;8.522;2023-04-08T08:13:51;78322.41;;;-3.47;60.53
13954;BME280;7049;49.444;8.522;2023-04-08T08:18:54;78303.56;;;-3.47;58.47
13954;BME280;7049;49.444;8.522;2023-04-08T08:23:56;78244.97;;;-3.47;57.87
13954;BME280;7049;49.444;8.522;2023-04-08T08:28:58;78211.47;;;-3.47;57.49
13954;BME280;7049;49.444;8.522;2023-04-08T08:34:04;78194.75;;;-3.47;53.99
13954;BME280;7049;49.444;8.522;2023-04-08T08:39:06;78165.44;;;-3.47;50.92
13954;BME280;7049;49.444;8.522;2023-04-08T08:44:08;78148.69;;;-3.47;49.65
13954;BME280;7049;49.444;8.522;2023-04-08T08:49:12;78161.25;;;-3.47;47.72
13954;BME280;7049;49.444;8.522;2023-04-08T08:54:13;78148.69;;;-3.47;47.05
13954;BME280;7049;49.444;8.522;2023-04-08T08:59:15;78148.69;;;-3.47;46.32
13954;BME280;7049;49.444;8.522;2023-04-08T09:04:20;78144.50;;;-3.47;47.35
13954;BME280;7049;49.444;8.522;2023-04-08T09:09:24;78157.06;;;-3.47;46.36
13954;BME280;7049;49.444;8.522;2023-04-08T09:14:26;78127.78;;;-3.47;46.64
13954;BME280;7049;49.444;8.522;2023-04-08T09:19:29;78069.19;;;-3.47;46.88
13954;BME280;7049;49.444;8.522;2023-04-08T09:24:30;78029.41;;;-3.47;44.58
13954;BME280;7049;49.444;8.522;2023-04-08T09:29:32;78023.13;;;-3.47;44.32
13954;BME280;7049;49.444;8.522;2023-04-08T09:34:35;78006.41;;;-3.47;43.68
13954;BME280;7049;49.444;8.522;2023-04-08T09:39:36;78014.78;;;-3.47;43.53
13954;BME280;7049;49.444;8.522;2023-04-08T09:44:39;78000.13;;;-3.47;43.89
13954;BME280;7049;49.444;8.522;2023-04-08T09:49:45;77993.84;;;-3.47;42.97
13954;BME280;7049;49.444;8.522;2023-04-08T09:54:52;77958.28;;;-3.47;41.82
13954;BME280;7049;49.444;8.522;2023-04-08T09:59:59;77920.59;;;-3.47;42.77
13954;BME280;7049;49.444;8.522;2023-04-08T10:05:11;77901.78;;;-3.47;41.38
13954;BME280;7049;49.444;8.522;2023-04-08T10:10:13;77891.31;;;-3.47;41.20
13954;BME280;7049;49.444;8.522;2023-04-08T10:15:23;77901.78;;;-3.47;42.44
13954;BME280;7049;49.444;8.522;2023-04-08T10:20:42;77912.22;;;-3.47;43.19
13954;BME280;7049;49.444;8.522;2023-04-08T10:25:45;77922.69;;;-3.47;43.66
13954;BME280;7049;49.444;8.522;2023-04-08T10:30:48;77935.25;;;-3.47;43.38
13954;BME280;7049;49.444;8.522;2023-04-08T10:35:52;77958.28;;;-3.47;42.75
13954;BME280;7049;49.444;8.522;2023-04-08T10:40:54;77975.00;;;-3.47;43.20
13954;BME280;7049;49.444;8.522;2023-04-08T10:45:56;77993.84;;;-3.47;43.09
13954;BME280;7049;49.444;8.522;2023-04-08T10:51:00;78014.78;;;-3.47;43.23
13954;BME280;7049;49.444;8.522;2023-04-08T10:56:04;78023.13;;;-3.47;43.18
13954;BME280;7049;49.444;8.522;2023-04-08T11:01:06;78027.31;;;-3.47;43.09
13954;BME280;7049;49.444;8.522;2023-04-08T11:06:09;78031.50;;;-3.47;43.07
13954;BME280;7049;49.444;8.522;2023-04-08T11:11:11;78023.13;;;-3.47;43.45
13954;BME280;7049;49.444;8.522;2023-04-08T11:16:13;78029.41;;;-3.47;43.18
13954;BME280;7049;49.444;8.522;2023-04-08T11:21:16;78031.50;;;-3.47;43.17
13954;BME280;7049;49.444;8.522;2023-04-08T11:26:18;78031.50;;;-3.47;43.61
13954;BME280;7049;49.444;8.522;2023-04-08T11:31:20;78027.31;;;-3.47;43.32
13954;BME280;7049;49.444;8.522;2023-04-08T11:36:23;78014.78;;;-3.47;43.90
13954;BME280;7049;49.444;8.522;2023-04-08T11:41:35;78010.59;;;-3.47;43.12
13954;BME280;7049;49.444;8.522;2023-04-08T11:46:36;77998.03;;;-3.47;42.49
13954;BME280;7049;49.444;8.522;2023-04-08T11:51:55;77972.91;;;-3.47;40.34
13954;BME280;7049;49.444;8.522;2023-04-08T11:56:57;77931.06;;;-3.47;39.83
13954;BME280;7049;49.444;8.522;2023-04-08T12:01:58;77918.50;;;-3.47;40.01
13954;BME280;7049;49.444;8.522;2023-04-08T12:07:02;77903.88;;;-3.47;40.16
13954;BME280;7049;49.444;8.522;2023-04-08T12:12:03;77880.84;;;-3.47;40.59
13954;BME280;7049;49.444;8.522;2023-04-08T12:17:05;77864.09;;;-3.47;41.17
13954;BME280;7049;49.444;8.522;2023-04-08T12:22:08;77839.00;;;-3.47;41.08
13954;BME280;7049;49.444;8.522;2023-04-08T12:27:10;77815.97;;;-3.47;40.91
13954;BME280;7049;49.444;8.522;2023-04-08T12:32:14;77811.78;;;-3.47;40.31
13954;BME280;7049;49.444;8.522;2023-04-08T12:37:17;77811.78;;;-3.47;39.34
13954;BME280;7049;49.444;8.522;2023-04-08T12:42:19;77801.34;;;-3.47;39.82
13954;BME280;7049;49.444;8.522;2023-04-08T12:47:21;77792.97;;;-3.47;39.82
13954;BME280;7049;49.444;8.522;2023-04-08T12:52:24;77792.97;;;-3.47;39.35
13954;BME280;7049;49.444;8.522;2023-04-08T12:57:25;77790.88;;;-3.47;39.68
13954;BME280;7049;49.444;8.522;2023-04-08T13:02:27;77776.22;;;-3.47;39.57
13954;BME280;7049;49.444;8.522;2023-04-08T13:07:30;77784.59;;;-3.47;39.16
13954;BME280;7049;49.444;8.522;2023-04-08T13:12:31;77792.97;;;-3.47;37.83
13954;BME280;7049;49.444;8.522;2023-04-08T13:17:33;77792.97;;;-3.47;38.65
13954;BME280;7049;49.444;8.522;2023-04-08T13:22:36;77776.22;;;-3.47;38.54
13954;BME280;7049;49.444;8.522;2023-04-08T13:27:37;77751.13;;;-3.47;38.75
13954;BME280;7049;49.444;8.522;2023-04-08T13:32:38;77726.00;;;-3.47;38.31
13954;BME280;7049;49.444;8.522;2023-04-08T13:37:41;77703.00;;;-3.47;38.75
13954;BME280;7049;49.444;8.522;2023-04-08T13:42:43;77705.09;;;-3.47;38.48
13954;BME280;7049;49.444;8.522;2023-04-08T13:47:44;77682.06;;;-3.47;38.97
13954;BME280;7049;49.444;8.522;2023-04-08T13:52:47;77671.59;;;-3.47;39.25
13954;BME280;7049;49.444;8.522;2023-04-08T13:57:49;77642.31;;;-3.47;39.53
13954;BME280;7049;49.444;8.522;2023-04-08T14:02:50;77608.84;;;-3.47;39.24
13954;BME280;7049;49.444;8.522;2023-04-08T14:07:53;77592.09;;;-3.47;39.17
13954;BME280;7049;49.444;8.522;2023-04-08T14:12:55;77596.28;;;-3.47;39.04
13954;BME280;7049;49.444;8.522;2023-04-08T14:17:56;77617.19;;;-3.47;39.30
13954;BME280;7049;49.444;8.522;2023-04-08T14:22:59;77617.19;;;-3.47;39.71
13954;BME280;7049;49.444;8.522;2023-04-08T14:28:01;77638.13;;;-3.47;39.97
13954;BME280;7049;49.444;8.522;2023-04-08T14:33:03;77650.69;;;-3.47;40.11
13954;BME280;7049;49.444;8.522;2023-04-08T14:38:06;77669.50;;;-3.47;40.40
13954;BME280;7049;49.444;8.522;2023-04-08T14:43:08;77692.53;;;-3.47;41.09
13954;BME280;7049;49.444;8.522;2023-04-08T14:48:09;77713.44;;;-3.47;41.47
13954;BME280;7049;49.444;8.522;2023-04-08T14:53:12;77726.00;;;-3.47;41.95
13954;BME280;7049;49.444;8.522;2023-04-08T14:58:13;77751.13;;;-3.47;42.29
13954;BME280;7049;49.444;8.522;2023-04-08T15:03:17;77774.13;;;-3.47;42.69
13954;BME280;7049;49.444;8.522;2023-04-08T15:08:20;77803.41;;;-3.47;43.02
13954;BME280;7049;49.444;8.522;2023-04-08T15:13:22;77815.97;;;-3.47;43.20
13954;BME280;7049;49.444;8.522;2023-04-08T15:18:23;77826.44;;;-3.47;43.28
13954;BME280;7049;49.444;8.522;2023-04-08T15:23:26;77839.00;;;-3.47;43.79
13954;BME280;7049;49.444;8.522;2023-04-08T15:28:28;77853.66;;;-3.47;44.46
13954;BME280;7049;49.444;8.522;2023-04-08T15:33:29;77855.75;;;-3.47;45.00
13954;BME280;7049;49.444;8.522;2023-04-08T15:38:32;77864.09;;;-3.47;45.34
13954;BME280;7049;49.444;8.522;2023-04-08T15:43:33;77876.66;;;-3.47;45.04
13954;BME280;7049;49.444;8.522;2023-04-08T15:48:36;77885.03;;;-3.47;45.75
13954;BME280;7049;49.444;8.522;2023-04-08T15:53:38;77874.56;;;-3.47;45.84
13954;BME280;7049;49.444;8.522;2023-04-08T15:58:41;77872.47;;;-3.47;45.29
13954;BME280;7049;49.444;8.522;2023-04-08T16:03:42;77866.19;;;-3.47;44.87
13954;BME280;7049;49.444;8.522;2023-04-08T16:08:45;77887.13;;;-3.47;44.34
13954;BME280;7049;49.444;8.522;2023-04-08T16:13:47;77895.50;;;-3.47;44.54
13954;BME280;7049;49.444;8.522;2023-04-08T16:18:48;77905.97;;;-3.47;44.49
13954;BME280;7049;49.444;8.522;2023-04-08T16:23:53;77901.78;;;-3.47;44.16
13954;BME280;7049;49.444;8.522;2023-04-08T16:28:54;77903.88;;;-3.47;43.46
13954;BME280;7049;49.444;8.522;2023-04-08T16:33:56;77910.13;;;-3.47;43.86
13954;BME280;7049;49.444;8.522;2023-04-08T16:38:58;77926.88;;;-3.47;44.26
13954;BME280;7049;49.444;8.522;2023-04-08T16:44:00;77941.53;;;-3.47;44.39
13954;BME280;7049;49.444;8.522;2023-04-08T16:49:01;77960.38;;;-3.47;44.20
13954;BME280;7049;49.444;8.522;2023-04-08T16:54:04;77972.91;;;-3.47;44.44
13954;BME280;7049;49.444;8.522;2023-04-08T16:59:06;77987.56;;;-3.47;44.76
13954;BME280;7049;49.444;8.522;2023-04-08T17:04:07;78006.41;;;-3.47;45.02
13954;BME280;7049;49.444;8.522;2023-04-08T17:09:10;78021.03;;;-3.47;45.39
13954;BME280;7049;49.444;8.522;2023-04-08T17:14:11;78039.88;;;-3.47;46.15
13954;BME280;7049;49.444;8.522;2023-04-08T17:19:13;78062.91;;;-3.47;46.51
13954;BME280;7049;49.444;8.522;2023-04-08T17:24:16;78069.19;;;-3.47;46.99
13954;BME280;7049;49.444;8.522;2023-04-08T17:29:18;78085.91;;;-3.47;47.20
13954;BME280;7049;49.444;8.522;2023-04-08T17:34:19;78096.38;;;-3.47;47.52
13954;BME280;7049;49.444;8.522;2023-04-08T17:39:23;78111.03;;;-3.47;48.10
13954;BME280;7049;49.444;8.522;2023-04-08T17:44:24;78123.59;;;-3.47;48.49
13954;BME280;7049;49.444;8.522;2023-04-08T17:49:28;78140.31;;;-3.47;49.72
13954;BME280;7049;49.444;8.522;2023-04-08T17:54:31;78148.69;;;-3.47;51.15
13954;BME280;7049;49.444;8.522;2023-04-08T17:59:33;78163.34;;;-3.47;52.36
13954;BME280;7049;49.444;8.522;2023-04-08T18:04:35;78173.81;;;-3.47;53.70
13954;BME280;7049;49.444;8.522;2023-04-08T18:09:38;78186.38;;;-3.47;55.01
13954;BME280;7049;49.444;8.522;2023-04-08T18:14:41;78198.91;;;-3.47;56.26
13954;BME280;7049;49.444;8.522;2023-04-08T18:19:43;78215.66;;;-3.47;57.00
13954;BME280;7049;49.444;8.522;2023-04-08T18:24:46;78228.22;;;-3.47;57.86
13954;BME280;7049;49.444;8.522;2023-04-08T18:29:47;78240.78;;;-3.47;58.43
13954;BME280;7049;49.444;8.522;2023-04-08T18:34:49;78249.16;;;-3.47;59.28
13954;BME280;7049;49.444;8.522;2023-04-08T18:39:52;78259.59;;;-3.47;59.74
13954;BME280;7049;49.444;8.522;2023-04-08T18:44:54;78270.06;;;-3.47;60.40
13954;BME280;7049;49.444;8.522;2023-04-08T18:49:55;78278.44;;;-3.47;60.67
13954;BME280;7049;49.444;8.522;2023-04-08T18:54:59;78286.81;;;-3.47;60.91
13954;BME280;7049;49.444;8.522;2023-04-08T19:00:03;78295.19;;;-3.47;61.13
13954;BME280;7049;49.444;8.522;2023-04-08T19:05:05;78318.22;;;-3.47;61.46
13954;BME280;7049;49.444;8.522;2023-04-08T19:10:09;78320.31;;;-3.47;61.65
13954;BME280;7049;49.444;8.522;2023-04-08T19:15:11;78330.75;;;-3.47;62.22
13954;BME280;7049;49.444;8.522;2023-04-08T19:20:14;78337.03;;;-3.47;62.81
13954;BME280;7049;49.444;8.522;2023-04-08T19:25:16;78339.13;;;-3.47;62.93
13954;BME280;7049;49.444;8.522;2023-04-08T19:30:19;78351.69;;;-3.47;63.19
13954;BME280;7049;49.444;8.522;2023-04-08T19:35:20;78349.59;;;-3.47;63.70
13954;BME280;7049;49.444;8.522;2023-04-08T19:40:23;78360.06;;;-3.47;63.96
13954;BME280;7049;49.444;8.522;2023-04-08T19:45:25;78366.34;;;-3.47;64.04
13954;BME280;7049;49.444;8.522;2023-04-08T19:50:27;78376.81;;;-3.47;64.67
13954;BME280;7049;49.444;8.522;2023-04-08T19:55:30;78378.91;;;-3.47;65.23
13954;BME280;7049;49.444;8.522;2023-04-08T20:00:32;78383.09;;;-3.47;66.04
13954;BME280;7049;49.444;8.522;2023-04-08T20:05:36;78389.38;;;-3.47;66.75
13954;BME280;7049;49.444;8.522;2023-04-08T20:10:39;78397.72;;;-3.47;66.88
13954;BME280;7049;49.444;8.522;2023-04-08T20:15:40;78399.81;;;-3.47;67.61
13954;BME280;7049;49.444;8.522;2023-04-08T20:20:42;78406.09;;;-3.47;68.16
13954;BME280;7049;49.444;8.522;2023-04-08T20:25:46;78414.47;;;-3.47;68.60
13954;BME280;7049;49.444;8.522;2023-04-08T20:30:47;78422.84;;;-3.47;69.10
13954;BME280;7049;49.444;8.522;2023-04-08T20:35:49;78420.75;;;-3.47;69.75
13954;BME280;7049;49.444;8.522;2023-04-08T20:40:53;78424.94;;;-3.47;70.40
13954;BME280;7049;49.444;8.522;2023-04-08T20:45:55;78424.94;;;-3.47;71.13
13954;BME280;7049;49.444;8.522;2023-04-08T20:50:56;78433.31;;;-3.47;71.48
13954;BME280;7049;49.444;8.522;2023-04-08T20:55:59;78437.50;;;-3.47;71.26
13954;BME280;7049;49.444;8.522;2023-04-08T21:01:00;78439.59;;;-3.47;70.94
13954;BME280;7049;49.444;8.522;2023-04-08T21:06:02;78450.06;;;-3.47;70.53
13954;BME280;7049;49.444;8.522;2023-04-08T21:11:05;78454.25;;;-3.47;70.72
13954;BME280;7049;49.444;8.522;2023-04-08T21:16:07;78462.63;;;-3.47;71.06
13954;BME280;7049;49.444;8.522;2023-04-08T21:21:08;78464.72;;;-3.47;68.00
13954;BME280;7049;49.444;8.522;2023-04-08T21:26:11;78471.00;;;-3.47;68.53
13954;BME280;7049;49.444;8.522;2023-04-08T21:31:13;78481.44;;;-3.47;68.29
13954;BME280;7049;49.444;8.522;2023-04-08T21:36:14;78485.63;;;-3.47;68.90
13954;BME280;7049;49.444;8.522;2023-04-08T21:41:17;78485.63;;;-3.47;67.79
13954;BME280;7049;49.444;8.522;2023-04-08T21:46:18;78483.53;;;-3.47;67.57
13954;BME280;7049;49.444;8.522;2023-04-08T21:51:20;78494.00;;;-3.47;67.69
13954;BME280;7049;49.444;8.522;2023-04-08T21:56:23;78494.00;;;-3.47;67.43
13954;BME280;7049;49.444;8.522;2023-04-08T22:01:24;78506.56;;;-3.47;66.61
13954;BME280;7049;49.444;8.522;2023-04-08T22:06:26;78510.75;;;-3.47;64.94
13954;BME280;7049;49.444;8.522;2023-04-08T22:11:28;78517.03;;;-3.47;63.36
13954;BME280;7049;49.444;8.522;2023-04-08T22:16:30;78523.31;;;-3.47;63.07
13954;BME280;7049;49.444;8.522;2023-04-08T22:21:32;78525.41;;;-3.47;62.21
13954;BME280;7049;49.444;8.522;2023-04-08T22:26:35;78525.41;;;-3.47;61.22
13954;BME280;7049;49.444;8.522;2023-04-08T22:31:36;78533.78;;;-3.47;59.85
13954;BME280;7049;49.444;8.522;2023-04-08T22:36:37;78537.97;;;-3.47;59.22
13954;BME280;7049;49.444;8.522;2023-04-08T22:41:40;78535.88;;;-3.47;58.17
13954;BME280;7049;49.444;8.522;2023-04-08T22:46:42;78544.25;;;-3.47;57.44
13954;BME280;7049;49.444;8.522;2023-04-08T22:51:43;78544.25;;;-3.47;58.45
13954;BME280;7049;49.444;8.522;2023-04-08T22:56:46;78550.50;;;-3.47;58.96
13954;BME280;7049;49.444;8.522;2023-04-08T23:01:47;78550.50;;;-3.47;59.84
13954;BME280;7049;49.444;8.522;2023-04-08T23:06:49;78552.59;;;-3.47;59.36
13954;BME280;7049;49.444;8.522;2023-04-08T23:11:51;78554.69;;;-3.47;59.21
13954;BME280;7049;49.444;8.522;2023-04-08T23:16:53;78558.88;;;-3.47;59.26
13954;BME280;7049;49.444;8.522;2023-04-08T23:21:54;78569.34;;;-3.47;59.84
13954;BME280;7049;49.444;8.522;2023-04-08T23:26:57;78579.81;;;-3.47;60.69
13954;BME280;7049;49.444;8.522;2023-04-08T23:31:58;78581.91;;;-3.47;60.19
13954;BME280;7049;49.444;8.522;2023-04-08T23:37:00;78588.19;;;-3.47;59.89
13954;BME280;7049;49.444;8.522;2023-04-08T23:42:04;78594.47;;;-3.47;58.86
13954;BME280;7049;49.444;8.522;2023-04-08T23:47:06;78600.75;;;-3.47;58.78
13954;BME280;7049;49.444;8.522;2023-04-08T23:52:07;78602.84;;;-3.47;58.81
13954;BME280;7049;49.444;8.522;2023-04-08T23:57:10;78604.94;;;-3.47;59.41
